createdAt,value
2018-04-28T00:00:04.897Z,84.50
2018-04-28T00:02:32.411Z,84.50
2018-04-28T00:04:59.869Z,84.60
2018-04-28T00:07:28.103Z,84.30
2018-04-28T00:09:55.566Z,84.30
2018-04-28T00:12:23.106Z,84.30
2018-04-28T00:14:50.568Z,84.10
2018-04-28T00:17:18.014Z,84.20
2018-04-28T00:19:58.658Z,83.60
2018-04-28T00:22:26.945Z,83.60
2018-04-28T00:24:56.102Z,83.60
2018-04-28T00:27:30.271Z,83.30
2018-04-28T00:33:01.807Z,83.20
2018-04-28T00:35:30.795Z,83.70
2018-04-28T00:37:58.970Z,83.70
2018-04-28T00:40:26.461Z,83.70
2018-04-28T00:42:54.762Z,84.00
2018-04-28T00:45:25.066Z,84.00
2018-04-28T00:47:52.516Z,84.30
2018-04-28T00:50:26.891Z,84.50
2018-04-28T00:52:55.107Z,85.00
2018-04-28T00:55:33.107Z,85.00
2018-04-28T00:58:09.329Z,85.20
2018-04-28T01:00:43.533Z,85.50
2018-04-28T01:03:11.003Z,85.90
2018-04-28T01:05:54.290Z,85.70
2018-04-28T01:08:26.230Z,86.10
2018-04-28T01:11:03.071Z,86.40
2018-04-28T01:16:29.681Z,87.30
2018-04-28T01:19:00.769Z,87.50
2018-04-28T01:21:43.789Z,88.00
2018-04-28T01:24:15.872Z,89.70
2018-04-28T01:26:44.253Z,90.00
2018-04-28T01:29:19.706Z,91.00
2018-04-28T01:31:52.919Z,90.60
2018-04-28T01:34:24.046Z,90.80
2018-04-28T01:37:00.907Z,90.80
2018-04-28T01:39:38.960Z,90.80
2018-04-28T01:45:26.273Z,92.10
2018-04-28T01:48:09.461Z,92.10
2018-04-28T01:50:42.598Z,92.50
2018-04-28T01:53:10.066Z,92.70
2018-04-28T01:55:39.839Z,93.70
2018-04-28T01:58:23.100Z,93.60
2018-04-28T02:00:56.251Z,94.00
2018-04-28T02:06:51.888Z,95.00
2018-04-28T02:09:19.346Z,95.20
2018-04-28T02:11:57.266Z,95.70
2018-04-28T02:14:32.688Z,96.30
2018-04-28T02:17:00.865Z,96.90
2018-04-28T02:19:36.206Z,97.50
2018-04-28T02:22:27.060Z,97.60
2018-04-28T02:25:06.543Z,98.00
2018-04-28T02:27:43.744Z,98.00
2018-04-28T02:30:11.233Z,98.00
2018-04-28T02:32:51.067Z,98.50
2018-04-28T02:35:28.244Z,98.50
2018-04-28T02:38:19.342Z,98.90
2018-04-28T02:41:03.392Z,99.10
2018-04-28T02:43:46.454Z,99.20
2018-04-28T02:46:17.269Z,99.70
2018-04-28T02:52:06.353Z,99.90
2018-04-28T02:54:35.445Z,99.80
2018-04-28T02:57:24.516Z,99.80
2018-04-28T02:59:55.531Z,99.60
2018-04-28T03:02:23.708Z,99.70
2018-04-28T03:04:54.028Z,99.70
2018-04-28T03:07:26.475Z,99.70
2018-04-28T03:12:51.412Z,99.70
2018-04-28T03:15:18.881Z,99.90
2018-04-28T03:17:53.866Z,99.90
2018-04-28T03:20:22.263Z,99.90
2018-04-28T03:22:55.091Z,99.90
2018-04-28T03:25:29.923Z,99.90
2018-04-28T03:28:00.847Z,99.90
2018-04-28T03:30:31.914Z,99.90
2018-04-28T03:33:03.051Z,99.90
2018-04-28T03:38:40.942Z,99.90
2018-04-28T03:44:09.109Z,99.90
2018-04-28T03:46:37.479Z,99.90
2018-04-28T03:49:19.272Z,99.90
2018-04-28T03:51:50.592Z,99.90
2018-04-28T03:54:20.706Z,99.90
2018-04-28T03:56:53.588Z,99.90
2018-04-28T03:59:33.141Z,99.90
2018-04-28T04:02:12.509Z,99.90
2018-04-28T04:04:54.862Z,99.90
2018-04-28T04:07:24.955Z,99.90
2018-04-28T04:09:55.754Z,99.90
2018-04-28T04:15:44.455Z,99.90
2018-04-28T04:18:13.609Z,99.90
2018-04-28T04:20:59.406Z,99.90
2018-04-28T04:23:44.507Z,99.90
2018-04-28T04:26:35.361Z,99.90
2018-04-28T04:29:18.345Z,99.90
2018-04-28T04:38:36.337Z,99.90
2018-04-28T04:41:09.754Z,99.90
2018-04-28T04:43:39.592Z,99.90
2018-04-28T04:46:13.624Z,99.90
2018-04-28T04:48:42.904Z,99.90
2018-04-28T04:51:29.256Z,99.90
2018-04-28T04:54:06.524Z,99.90
2018-04-28T04:56:44.803Z,99.90
2018-04-28T04:59:38.817Z,99.90
2018-04-28T05:02:12.806Z,99.90
2018-04-28T05:04:52.170Z,99.90
2018-04-28T05:07:31.090Z,99.90
2018-04-28T05:10:13.447Z,99.90
2018-04-28T05:13:02.639Z,99.90
2018-04-28T05:15:36.054Z,99.90
2018-04-28T05:18:15.463Z,99.90
2018-04-28T05:21:00.476Z,99.90
2018-04-28T05:23:45.145Z,99.90
2018-04-28T05:26:24.416Z,99.90
2018-04-28T05:32:07.912Z,99.90
2018-04-28T05:34:37.588Z,99.90
2018-04-28T05:40:15.265Z,99.30
2018-04-28T05:43:07.188Z,96.40
2018-04-28T05:48:48.131Z,93.70
2018-04-28T05:51:45.236Z,93.70
2018-04-28T05:54:27.267Z,92.10
2018-04-28T06:00:36.305Z,88.90
2018-04-28T06:03:16.171Z,85.40
2018-04-28T06:06:10.291Z,85.20
2018-04-28T06:08:53.392Z,83.60
2018-04-28T06:11:27.464Z,80.50
2018-04-28T06:17:14.292Z,79.40
2018-04-28T06:23:01.075Z,78.00
2018-04-28T06:25:29.334Z,76.10
2018-04-28T06:27:56.794Z,76.10
2018-04-28T06:30:24.265Z,75.20
2018-04-28T06:32:51.743Z,73.70
2018-04-28T06:35:19.226Z,74.40
2018-04-28T06:37:46.885Z,75.50
2018-04-28T06:40:14.404Z,76.40
2018-04-28T06:42:41.835Z,76.90
2018-04-28T06:45:10.807Z,75.70
2018-04-28T06:47:38.282Z,75.50
2018-04-28T06:50:05.754Z,74.60
2018-04-28T06:52:33.210Z,71.60
2018-04-28T06:55:00.711Z,69.60
2018-04-28T06:57:28.194Z,69.50
2018-04-28T06:59:55.680Z,69.60
2018-04-28T07:02:23.181Z,70.10
2018-04-28T07:04:50.637Z,70.90
2018-04-28T07:07:18.120Z,69.20
2018-04-28T07:09:46.326Z,68.30
2018-04-28T07:12:13.809Z,68.40
2018-04-28T07:14:41.348Z,68.20
2018-04-28T07:17:08.827Z,67.30
2018-04-28T07:19:36.310Z,67.40
2018-04-28T07:22:03.783Z,67.30
2018-04-28T07:24:31.241Z,67.90
2018-04-28T07:26:58.756Z,67.50
2018-04-28T07:29:26.267Z,65.90
2018-04-28T07:31:54.488Z,66.50
2018-04-28T07:34:22.024Z,66.30
2018-04-28T07:36:50.282Z,65.90
2018-04-28T07:39:17.786Z,65.90
2018-04-28T07:41:45.236Z,64.90
2018-04-28T07:44:16.848Z,65.10
2018-04-28T07:46:44.997Z,63.90
2018-04-28T07:49:12.513Z,60.80
2018-04-28T07:51:40.748Z,59.10
2018-04-28T07:54:08.388Z,59.10
2018-04-28T07:56:36.526Z,61.40
2018-04-28T07:59:03.966Z,61.30
2018-04-28T08:01:31.429Z,60.50
2018-04-28T08:03:59.674Z,59.30
2018-04-28T08:06:27.914Z,58.50
2018-04-28T08:08:55.364Z,58.40
2018-04-28T08:11:22.870Z,60.00
2018-04-28T08:13:51.734Z,57.70
2018-04-28T08:16:19.207Z,57.70
2018-04-28T08:18:46.762Z,57.50
2018-04-28T08:21:14.343Z,58.20
2018-04-28T08:23:41.898Z,58.70
2018-04-28T08:26:09.399Z,59.40
2018-04-28T08:28:36.871Z,59.30
2018-04-28T08:31:04.314Z,58.80
2018-04-28T08:33:31.878Z,57.30
2018-04-28T08:36:00.138Z,60.40
2018-04-28T08:38:27.661Z,60.50
2018-04-28T08:40:55.895Z,57.70
2018-04-28T08:43:23.401Z,57.70
2018-04-28T08:45:50.891Z,56.20
2018-04-28T08:48:19.136Z,55.10
2018-04-28T08:50:46.836Z,55.10
2018-04-28T08:53:14.365Z,55.10
2018-04-28T08:55:41.827Z,54.80
2018-04-28T08:58:09.372Z,53.90
2018-04-28T09:03:39.359Z,56.90
2018-04-28T09:06:06.742Z,57.00
2018-04-28T09:08:34.207Z,58.10
2018-04-28T09:11:02.452Z,56.70
2018-04-28T09:13:29.932Z,56.60
2018-04-28T09:15:57.387Z,56.40
2018-04-28T09:18:25.629Z,55.50
2018-04-28T09:20:53.129Z,55.50
2018-04-28T09:23:21.354Z,53.90
2018-04-28T09:25:48.819Z,53.90
2018-04-28T09:28:16.276Z,53.90
2018-04-28T09:30:43.734Z,54.30
2018-04-28T09:33:11.292Z,52.20
2018-04-28T09:35:38.749Z,52.00
2018-04-28T09:38:06.215Z,52.60
2018-04-28T09:40:33.676Z,53.50
2018-04-28T09:43:01.223Z,53.90
2018-04-28T09:45:28.676Z,53.90
2018-04-28T09:47:56.160Z,52.10
2018-04-28T09:50:24.448Z,50.20
2018-04-28T09:52:52.685Z,50.20
2018-04-28T09:55:20.136Z,50.20
2018-04-28T09:57:59.479Z,49.40
2018-04-28T10:03:05.766Z,51.40
2018-04-28T10:05:33.211Z,50.80
2018-04-28T10:08:00.683Z,49.10
2018-04-28T10:10:28.135Z,49.10
2018-04-28T10:12:55.622Z,48.50
2018-04-28T10:15:23.131Z,49.70
2018-04-28T10:17:50.614Z,51.90
2018-04-28T10:20:18.172Z,53.30
2018-04-28T10:22:45.517Z,53.30
2018-04-28T10:25:12.991Z,52.30
2018-04-28T10:27:41.194Z,51.20
2018-04-28T10:30:08.676Z,51.20
2018-04-28T10:32:36.131Z,52.30
2018-04-28T10:35:03.592Z,52.20
2018-04-28T10:37:31.091Z,52.70
2018-04-28T10:39:59.354Z,50.50
2018-04-28T10:42:26.832Z,50.40
2018-04-28T10:44:55.089Z,50.70
2018-04-28T10:47:22.531Z,50.60
2018-04-28T10:49:49.991Z,49.30
2018-04-28T10:52:17.436Z,50.10
2018-04-28T10:54:44.914Z,51.20
2018-04-28T10:57:13.131Z,48.90
2018-04-28T10:59:40.601Z,48.90
2018-04-28T11:02:08.071Z,49.50
2018-04-28T11:04:35.563Z,50.20
2018-04-28T11:07:03.871Z,49.80
2018-04-28T11:09:31.310Z,49.90
2018-04-28T11:11:59.522Z,49.40
2018-04-28T11:14:26.979Z,49.50
2018-04-28T11:16:54.468Z,50.10
2018-04-28T11:19:21.930Z,49.70
2018-04-28T11:21:49.415Z,50.30
2018-04-28T11:24:17.611Z,48.70
2018-04-28T11:26:45.083Z,48.70
2018-04-28T11:29:12.533Z,49.40
2018-04-28T11:31:39.986Z,50.00
2018-04-28T11:34:07.468Z,49.10
2018-04-28T11:36:35.355Z,49.10
2018-04-28T11:39:02.794Z,48.70
2018-04-28T11:41:30.272Z,48.90
2018-04-28T11:43:58.489Z,48.50
2018-04-28T11:46:25.934Z,48.30
2018-04-28T11:48:53.388Z,48.10
2018-04-28T11:51:20.878Z,48.40
2018-04-28T11:53:48.347Z,48.50
2018-04-28T11:56:15.829Z,48.50
2018-04-28T11:58:43.306Z,48.90
2018-04-28T12:01:10.834Z,49.20
2018-04-28T12:03:38.297Z,50.40
2018-04-28T12:06:05.742Z,49.70
2018-04-28T12:08:33.283Z,50.30
2018-04-28T12:11:00.739Z,50.60
2018-04-28T12:13:28.192Z,50.30
2018-04-28T12:15:55.644Z,50.90
2018-04-28T12:18:23.202Z,50.40
2018-04-28T12:20:50.705Z,50.50
2018-04-28T12:23:18.158Z,50.50
2018-04-28T12:25:46.395Z,51.40
2018-04-28T12:28:13.883Z,51.80
2018-04-28T12:30:41.359Z,51.50
2018-04-28T12:33:09.573Z,51.60
2018-04-28T12:35:37.074Z,51.50
2018-04-28T12:38:04.537Z,51.60
2018-04-28T12:40:32.776Z,52.50
2018-04-28T12:43:00.228Z,52.60
2018-04-28T12:45:27.679Z,53.50
2018-04-28T12:47:55.343Z,53.10
2018-04-28T12:50:22.811Z,53.70
2018-04-28T12:52:50.255Z,53.30
2018-04-28T12:55:17.726Z,52.70
2018-04-28T12:57:45.162Z,53.10
2018-04-28T13:00:12.612Z,53.30
2018-04-28T13:02:40.069Z,53.40
2018-04-28T13:05:11.528Z,53.30
2018-04-28T13:07:39.106Z,52.70
2018-04-28T13:10:06.588Z,52.60
2018-04-28T13:12:34.038Z,52.00
2018-04-28T13:15:01.541Z,51.10
2018-04-28T13:17:29.035Z,51.50
2018-04-28T13:19:56.463Z,52.00
2018-04-28T13:22:23.946Z,51.00
2018-04-28T13:24:51.439Z,51.40
2018-04-28T13:27:18.915Z,51.90
2018-04-28T13:29:46.424Z,51.80
2018-04-28T13:32:13.996Z,51.60
2018-04-28T13:34:41.703Z,51.40
2018-04-28T13:37:09.316Z,50.90
2018-04-28T13:39:36.933Z,50.10
2018-04-28T13:42:09.837Z,49.70
2018-04-28T14:00:46.921Z,49.50
2018-04-28T14:03:15.075Z,54.30
2018-04-28T14:05:43.352Z,55.20
2018-04-28T14:08:12.599Z,55.30
2018-04-28T14:10:40.349Z,55.60
2018-04-28T14:13:08.679Z,54.60
2018-04-28T14:15:41.083Z,54.50
2018-04-28T14:18:14.810Z,54.50
2018-04-28T14:20:42.584Z,54.70
2018-04-28T14:23:10.051Z,54.70
2018-04-28T14:25:37.570Z,54.40
2018-04-28T14:28:05.774Z,54.40
2018-04-28T14:30:33.252Z,54.40
2018-04-28T14:33:01.406Z,53.70
2018-04-28T14:35:28.938Z,54.30
2018-04-28T14:37:56.394Z,54.70
2018-04-28T14:40:23.863Z,55.30
2018-04-28T14:42:51.343Z,54.80
2018-04-28T14:45:18.820Z,54.80
2018-04-28T14:50:18.057Z,55.40
2018-04-28T14:52:46.337Z,55.50
2018-04-28T14:55:13.925Z,55.50
2018-04-28T14:57:42.141Z,55.40
2018-04-28T15:00:10.030Z,54.70
2018-04-28T15:02:37.496Z,54.70
2018-04-28T15:05:04.953Z,55.20
2018-04-28T15:07:33.202Z,55.30
2018-04-28T15:10:00.690Z,55.30
2018-04-28T15:12:28.151Z,55.40
2018-04-28T15:14:55.613Z,55.60
2018-04-28T15:17:23.179Z,56.00
2018-04-28T15:19:50.648Z,56.30
2018-04-28T15:22:18.119Z,56.20
2018-04-28T15:24:45.567Z,56.60
2018-04-28T15:27:13.822Z,56.70
2018-04-28T15:29:41.265Z,56.60
2018-04-28T15:32:09.490Z,57.20
2018-04-28T15:34:36.947Z,57.20
2018-04-28T15:37:04.461Z,57.60
2018-04-28T15:39:31.920Z,57.60
2018-04-28T15:41:59.375Z,57.30
2018-04-28T15:44:26.873Z,57.50
2018-04-28T15:46:54.405Z,58.30
2018-04-28T15:49:22.735Z,58.30
2018-04-28T15:51:50.222Z,58.30
2018-04-28T15:54:17.709Z,58.10
2018-04-28T15:56:45.999Z,57.90
2018-04-28T15:59:13.480Z,57.90
2018-04-28T16:01:41.080Z,56.40
2018-04-28T16:04:09.307Z,56.60
2018-04-28T16:06:36.812Z,56.60
2018-04-28T16:09:05.288Z,57.00
2018-04-28T16:11:32.679Z,56.60
2018-04-28T16:14:00.210Z,56.80
2018-04-28T16:16:28.557Z,55.80
2018-04-28T16:18:56.003Z,55.80
2018-04-28T16:21:23.467Z,56.40
2018-04-28T16:23:50.908Z,54.60
2018-04-28T16:26:19.184Z,52.70
2018-04-28T16:28:46.650Z,52.60
2018-04-28T16:31:14.194Z,53.00
2018-04-28T16:33:41.662Z,52.50
2018-04-28T16:36:09.209Z,53.50
2018-04-28T16:38:37.467Z,54.10
2018-04-28T16:41:04.947Z,54.10
2018-04-28T16:43:32.422Z,54.40
2018-04-28T16:45:59.926Z,54.10
2018-04-28T16:48:28.249Z,55.50
2018-04-28T16:50:55.776Z,55.10
2018-04-28T16:53:23.223Z,55.10
2018-04-28T16:55:50.875Z,56.10
2018-04-28T16:58:19.095Z,56.30
2018-04-28T17:00:46.579Z,56.30
2018-04-28T17:03:14.888Z,56.10
2018-04-28T17:05:42.349Z,55.90
2018-04-28T17:08:09.855Z,55.80
2018-04-28T17:10:37.303Z,55.70
2018-04-28T17:13:04.884Z,55.80
2018-04-28T17:15:32.384Z,55.80
2018-04-28T17:18:00.641Z,57.00
2018-04-28T17:20:28.110Z,57.00
2018-04-28T17:22:55.644Z,57.20
2018-04-28T17:25:23.127Z,57.60
2018-04-28T17:27:50.584Z,58.40
2018-04-28T17:30:18.090Z,59.30
2018-04-28T17:32:45.562Z,60.30
2018-04-28T17:35:13.056Z,59.60
2018-04-28T17:37:40.516Z,59.80
2018-04-28T17:40:08.002Z,60.00
2018-04-28T17:42:35.491Z,60.30
2018-04-28T17:45:02.979Z,60.70
2018-04-28T17:47:30.431Z,60.20
2018-04-28T17:49:57.947Z,60.10
2018-04-28T17:52:25.391Z,60.80
2018-04-28T17:54:52.864Z,61.30
2018-04-28T17:57:20.347Z,61.30
2018-04-28T17:59:47.829Z,60.90
2018-04-28T18:02:15.329Z,61.30
2018-04-28T18:04:42.804Z,61.60
2018-04-28T18:07:10.290Z,62.80
2018-04-28T18:09:37.789Z,62.80
2018-04-28T18:12:06.028Z,63.00
2018-04-28T18:14:33.558Z,63.00
2018-04-28T18:17:00.957Z,63.60
2018-04-28T18:19:28.440Z,64.00
2018-04-28T18:21:56.022Z,63.70
2018-04-28T18:24:23.475Z,64.00
2018-04-28T18:26:50.963Z,64.40
2018-04-28T18:29:19.378Z,65.10
2018-04-28T18:31:46.987Z,66.40
2018-04-28T18:34:14.549Z,69.00
2018-04-28T18:36:42.727Z,71.30
2018-04-28T18:39:10.256Z,71.30
2018-04-28T18:41:37.717Z,73.80
2018-04-28T18:44:05.963Z,77.20
2018-04-28T18:46:33.458Z,77.20
2018-04-28T18:49:00.928Z,77.00
2018-04-28T18:51:28.404Z,77.50
2018-04-28T18:53:56.672Z,79.40
2018-04-28T18:56:24.117Z,79.40
2018-04-28T18:58:51.621Z,80.30
2018-04-28T19:01:19.109Z,80.80
2018-04-28T19:03:46.574Z,81.40
2018-04-28T19:06:14.064Z,80.70
2018-04-28T19:08:41.572Z,81.50
2018-04-28T19:11:09.873Z,82.60
2018-04-28T19:13:38.123Z,82.80
2018-04-28T19:16:05.619Z,82.80
2018-04-28T19:18:33.077Z,85.30
2018-04-28T19:21:00.585Z,84.30
2018-04-28T19:23:27.996Z,82.40
2018-04-28T19:25:56.093Z,83.50
2018-04-28T19:28:24.263Z,84.80
2018-04-28T19:30:51.756Z,84.70
2018-04-28T19:33:19.215Z,85.60
2018-04-28T19:35:46.861Z,85.90
2018-04-28T19:38:14.333Z,86.70
2018-04-28T19:40:41.822Z,88.00
2018-04-28T19:43:10.040Z,86.60
2018-04-28T19:45:37.496Z,86.60
2018-04-28T19:48:05.717Z,87.10
2018-04-28T19:50:33.202Z,87.10
2018-04-28T19:53:00.657Z,87.00
2018-04-28T19:55:28.164Z,87.80
2018-04-28T19:57:56.343Z,87.90
2018-04-28T20:00:27.917Z,88.40
2018-04-28T20:02:55.367Z,88.60
2018-04-28T20:05:22.868Z,88.90
2018-04-28T20:07:50.362Z,88.20
2018-04-28T20:10:17.838Z,87.90
2018-04-28T20:12:45.323Z,88.00
2018-04-28T20:15:12.791Z,88.00
2018-04-28T20:17:40.372Z,88.30
2018-04-28T20:20:07.817Z,88.80
2018-04-28T20:22:47.165Z,89.60
2018-04-28T20:25:26.651Z,90.00
2018-04-28T20:27:54.060Z,90.10
2018-04-28T20:30:21.506Z,90.60
2018-04-28T20:32:49.129Z,91.00
2018-04-28T20:35:17.524Z,91.10
2018-04-28T20:37:44.980Z,91.10
2018-04-28T20:40:12.982Z,91.20
2018-04-28T20:42:40.556Z,91.50
2018-04-28T20:45:16.534Z,91.60
2018-04-28T20:47:44.108Z,91.60
2018-04-28T20:50:11.544Z,91.60
2018-04-28T20:52:39.023Z,91.70
2018-04-28T20:55:07.268Z,92.00
2018-04-28T20:57:34.827Z,91.80
2018-04-28T21:00:03.117Z,91.60
2018-04-28T21:02:30.599Z,91.60
2018-04-28T21:04:58.053Z,91.50
2018-04-28T21:07:26.271Z,91.50
2018-04-28T21:09:54.386Z,91.40
2018-04-28T21:12:21.839Z,91.80
2018-04-28T21:14:49.404Z,92.10
2018-04-28T21:17:16.857Z,92.90
2018-04-28T21:19:45.151Z,93.90
2018-04-28T21:22:13.366Z,94.30
2018-04-28T21:24:40.855Z,94.30
2018-04-28T21:27:08.314Z,95.30
2018-04-28T21:29:35.788Z,95.40
2018-04-28T21:32:03.236Z,95.80
2018-04-28T21:34:30.686Z,96.10
2018-04-28T21:36:58.145Z,96.80
2018-04-28T21:39:25.602Z,97.00
2018-04-28T21:41:53.213Z,97.20
2018-04-28T21:44:20.678Z,97.20
2018-04-28T21:46:48.127Z,97.20
2018-04-28T21:49:15.642Z,97.30
2018-04-28T21:51:43.107Z,97.20
2018-04-28T21:54:14.709Z,97.30
2018-04-28T21:56:42.284Z,97.40
2018-04-28T21:59:11.020Z,97.40
2018-04-28T22:01:38.961Z,97.40
2018-04-28T22:04:06.534Z,97.50
2018-04-28T22:06:34.701Z,97.60
2018-04-28T22:09:02.189Z,97.50
2018-04-28T22:11:29.738Z,97.50
2018-04-28T22:13:57.165Z,97.70
2018-04-28T22:16:24.779Z,97.70
2018-04-28T22:18:52.308Z,97.80
2018-04-28T22:21:20.543Z,98.00
2018-04-28T22:23:48.029Z,98.60
2018-04-28T22:26:15.566Z,98.70
2018-04-28T22:28:43.451Z,99.20
2018-04-28T22:31:10.972Z,99.60
2018-04-28T22:33:38.534Z,99.80
2018-04-28T22:36:06.827Z,99.90
2018-04-28T22:38:34.306Z,99.90
2018-04-28T22:41:01.787Z,99.90
2018-04-28T22:43:29.285Z,99.90
2018-04-28T22:45:57.713Z,99.90
2018-04-28T22:48:26.154Z,99.90
2018-04-28T22:50:53.627Z,99.90
2018-04-28T22:53:21.113Z,99.90
2018-04-28T22:55:49.270Z,99.90
2018-04-28T22:58:16.802Z,99.90
2018-04-28T23:00:44.342Z,99.90
2018-04-28T23:03:11.906Z,99.90
2018-04-28T23:05:39.412Z,99.90
2018-04-28T23:08:06.910Z,99.90
2018-04-28T23:10:35.140Z,99.90
2018-04-28T23:13:04.013Z,99.90
2018-04-28T23:15:31.499Z,99.90
2018-04-28T23:18:03.122Z,99.90
2018-04-28T23:20:30.699Z,99.90
2018-04-28T23:23:01.698Z,99.90
2018-04-28T23:25:33.279Z,99.90
2018-04-28T23:28:00.774Z,99.90
2018-04-28T23:30:33.100Z,99.90
2018-04-28T23:33:00.759Z,99.90
2018-04-28T23:35:29.000Z,99.90
2018-04-28T23:37:56.486Z,99.90
2018-04-28T23:40:23.986Z,99.90
2018-04-28T23:42:52.249Z,99.90
2018-04-28T23:45:19.811Z,99.90
2018-04-28T23:47:47.382Z,99.90
2018-04-28T23:50:15.207Z,99.90
2018-04-28T23:52:47.321Z,99.90
2018-04-28T23:55:16.026Z,99.90
2018-04-28T23:57:43.570Z,99.90
